sensor_id;sensor_type;location;lat;lon;timestamp;P1;durP1;ratioP1;P2;durP2;ratioP2
25069;SDS011;13064;48.162;11.536;2022-09-02T00:03:48;4.00;;;2.80;;
25069;SDS011;13064;48.162;11.536;2022-09-02T00:06:16;2.55;;;2.35;;
25069;SDS011;13064;48.162;11.536;2022-09-02T00:08:44;5.28;;;2.80;;
25069;SDS011;13064;48.162;11.536;2022-09-02T00:11:13;6.30;;;2.88;;
25069;SDS011;13064;48.162;11.536;2022-09-02T00:13:42;4.03;;;3.08;;
25069;SDS011;13064;48.162;11.536;2022-09-02T00:16:10;5.32;;;2.50;;
25069;SDS011;13064;48.162;11.536;2022-09-02T00:18:38;5.07;;;2.60;;
25069;SDS011;13064;48.162;11.536;2022-09-02T00:21:11;3.88;;;3.05;;
25069;SDS011;13064;48.162;11.536;2022-09-02T00:23:40;4.63;;;2.80;;
25069;SDS011;13064;48.162;11.536;2022-09-02T00:26:08;3.22;;;2.92;;
25069;SDS011;13064;48.162;11.536;2022-09-02T00:28:36;2.85;;;2.55;;
25069;SDS011;13064;48.162;11.536;2022-09-02T00:31:06;4.07;;;2.80;;
25069;SDS011;13064;48.162;11.536;2022-09-02T00:33:35;4.68;;;3.05;;
25069;SDS011;13064;48.162;11.536;2022-09-02T00:36:03;2.53;;;2.33;;
25069;SDS011;13064;48.162;11.536;2022-09-02T00:38:32;3.50;;;2.80;;
25069;SDS011;13064;48.162;11.536;2022-09-02T00:41:03;3.75;;;2.80;;
25069;SDS011;13064;48.162;11.536;2022-09-02T00:44:05;4.53;;;2.80;;
25069;SDS011;13064;48.162;11.536;2022-09-02T00:46:26;5.22;;;3.05;;
25069;SDS011;13064;48.162;11.536;2022-09-02T00:51:27;6.15;;;2.83;;
25069;SDS011;13064;48.162;11.536;2022-09-02T00:53:58;3.50;;;2.90;;
25069;SDS011;13064;48.162;11.536;2022-09-02T00:56:27;3.65;;;3.15;;
25069;SDS011;13064;48.162;11.536;2022-09-02T00:58:55;5.75;;;3.53;;
25069;SDS011;13064;48.162;11.536;2022-09-02T01:01:24;6.78;;;3.00;;
25069;SDS011;13064;48.162;11.536;2022-09-02T01:03:53;5.13;;;2.92;;
25069;SDS011;13064;48.162;11.536;2022-09-02T01:06:21;3.50;;;2.90;;
25069;SDS011;13064;48.162;11.536;2022-09-02T01:08:56;5.00;;;3.10;;
25069;SDS011;13064;48.162;11.536;2022-09-02T01:11:29;3.40;;;3.10;;
25069;SDS011;13064;48.162;11.536;2022-09-02T01:14:02;3.75;;;2.60;;
25069;SDS011;13064;48.162;11.536;2022-09-02T01:16:41;3.58;;;3.08;;
25069;SDS011;13064;48.162;11.536;2022-09-02T01:19:23;6.75;;;3.25;;
25069;SDS011;13064;48.162;11.536;2022-09-02T01:21:52;6.75;;;3.10;;
25069;SDS011;13064;48.162;11.536;2022-09-02T01:24:22;5.10;;;3.58;;
25069;SDS011;13064;48.162;11.536;2022-09-02T01:26:52;5.50;;;3.33;;
25069;SDS011;13064;48.162;11.536;2022-09-02T01:29:20;4.70;;;3.00;;
25069;SDS011;13064;48.162;11.536;2022-09-02T01:31:48;3.60;;;2.92;;
25069;SDS011;13064;48.162;11.536;2022-09-02T01:34:17;6.10;;;2.90;;
25069;SDS011;13064;48.162;11.536;2022-09-02T01:36:44;6.25;;;3.00;;
25069;SDS011;13064;48.162;11.536;2022-09-02T01:39:13;5.55;;;2.88;;
25069;SDS011;13064;48.162;11.536;2022-09-02T01:41:41;7.10;;;3.58;;
25069;SDS011;13064;48.162;11.536;2022-09-02T01:44:09;5.13;;;3.45;;
25069;SDS011;13064;48.162;11.536;2022-09-02T01:46:38;6.55;;;3.05;;
25069;SDS011;13064;48.162;11.536;2022-09-02T01:49:06;4.32;;;3.38;;
25069;SDS011;13064;48.162;11.536;2022-09-02T01:51:34;3.25;;;2.92;;
25069;SDS011;13064;48.162;11.536;2022-09-02T01:54:03;3.72;;;3.00;;
25069;SDS011;13064;48.162;11.536;2022-09-02T01:56:31;5.53;;;3.22;;
25069;SDS011;13064;48.162;11.536;2022-09-02T01:59:00;3.65;;;2.85;;
25069;SDS011;13064;48.162;11.536;2022-09-02T02:01:28;3.42;;;3.13;;
25069;SDS011;13064;48.162;11.536;2022-09-02T02:03:56;4.25;;;3.13;;
25069;SDS011;13064;48.162;11.536;2022-09-02T02:06:24;4.75;;;3.13;;
25069;SDS011;13064;48.162;11.536;2022-09-02T02:08:53;4.28;;;3.10;;
25069;SDS011;13064;48.162;11.536;2022-09-02T02:11:22;4.65;;;3.10;;
25069;SDS011;13064;48.162;11.536;2022-09-02T02:13:55;5.40;;;3.28;;
25069;SDS011;13064;48.162;11.536;2022-09-02T02:16:23;4.80;;;2.63;;
25069;SDS011;13064;48.162;11.536;2022-09-02T02:18:51;6.13;;;3.30;;
25069;SDS011;13064;48.162;11.536;2022-09-02T02:21:19;3.47;;;2.85;;
25069;SDS011;13064;48.162;11.536;2022-09-02T02:23:46;4.13;;;2.78;;
25069;SDS011;13064;48.162;11.536;2022-09-02T02:26:14;4.07;;;2.92;;
25069;SDS011;13064;48.162;11.536;2022-09-02T02:28:42;5.80;;;2.92;;
25069;SDS011;13064;48.162;11.536;2022-09-02T02:31:10;4.13;;;3.00;;
25069;SDS011;13064;48.162;11.536;2022-09-02T02:33:38;4.22;;;3.50;;
25069;SDS011;13064;48.162;11.536;2022-09-02T02:36:06;3.83;;;3.03;;
25069;SDS011;13064;48.162;11.536;2022-09-02T02:38:34;4.80;;;2.92;;
25069;SDS011;13064;48.162;11.536;2022-09-02T02:41:02;5.57;;;3.33;;
25069;SDS011;13064;48.162;11.536;2022-09-02T02:43:33;7.03;;;3.22;;
25069;SDS011;13064;48.162;11.536;2022-09-02T02:46:01;5.43;;;3.13;;
25069;SDS011;13064;48.162;11.536;2022-09-02T02:48:28;3.72;;;2.95;;
25069;SDS011;13064;48.162;11.536;2022-09-02T02:50:56;5.22;;;3.40;;
25069;SDS011;13064;48.162;11.536;2022-09-02T02:53:25;5.13;;;3.65;;
25069;SDS011;13064;48.162;11.536;2022-09-02T02:55:55;3.58;;;2.90;;
25069;SDS011;13064;48.162;11.536;2022-09-02T02:58:23;3.35;;;2.90;;
25069;SDS011;13064;48.162;11.536;2022-09-02T03:00:52;4.72;;;3.35;;
25069;SDS011;13064;48.162;11.536;2022-09-02T03:03:20;4.30;;;3.13;;
25069;SDS011;13064;48.162;11.536;2022-09-02T03:05:52;4.07;;;3.10;;
25069;SDS011;13064;48.162;11.536;2022-09-02T03:08:20;3.78;;;3.25;;
25069;SDS011;13064;48.162;11.536;2022-09-02T03:10:50;4.78;;;3.58;;
25069;SDS011;13064;48.162;11.536;2022-09-02T03:13:21;4.53;;;3.13;;
25069;SDS011;13064;48.162;11.536;2022-09-02T03:15:49;3.95;;;3.38;;
25069;SDS011;13064;48.162;11.536;2022-09-02T03:18:18;4.68;;;2.92;;
25069;SDS011;13064;48.162;11.536;2022-09-02T03:20:48;6.25;;;3.47;;
25069;SDS011;13064;48.162;11.536;2022-09-02T03:23:16;5.32;;;3.05;;
25069;SDS011;13064;48.162;11.536;2022-09-02T03:25:47;5.43;;;3.40;;
25069;SDS011;13064;48.162;11.536;2022-09-02T03:28:35;5.03;;;3.10;;
25069;SDS011;13064;48.162;11.536;2022-09-02T03:31:05;3.47;;;3.17;;
25069;SDS011;13064;48.162;11.536;2022-09-02T03:33:33;4.18;;;3.28;;
25069;SDS011;13064;48.162;11.536;2022-09-02T03:36:02;3.80;;;3.25;;
25069;SDS011;13064;48.162;11.536;2022-09-02T03:38:30;5.30;;;3.65;;
25069;SDS011;13064;48.162;11.536;2022-09-02T03:40:58;5.63;;;2.90;;
25069;SDS011;13064;48.162;11.536;2022-09-02T03:43:25;3.53;;;3.03;;
25069;SDS011;13064;48.162;11.536;2022-09-02T03:45:54;4.10;;;3.35;;
25069;SDS011;13064;48.162;11.536;2022-09-02T03:48:22;4.75;;;3.25;;
25069;SDS011;13064;48.162;11.536;2022-09-02T03:50:49;4.93;;;3.47;;
25069;SDS011;13064;48.162;11.536;2022-09-02T03:53:19;5.65;;;3.65;;
25069;SDS011;13064;48.162;11.536;2022-09-02T03:55:52;4.47;;;3.47;;
25069;SDS011;13064;48.162;11.536;2022-09-02T03:58:23;4.47;;;3.22;;
25069;SDS011;13064;48.162;11.536;2022-09-02T04:00:52;11.05;;;3.40;;
25069;SDS011;13064;48.162;11.536;2022-09-02T04:03:22;6.05;;;3.83;;
25069;SDS011;13064;48.162;11.536;2022-09-02T04:05:50;4.07;;;3.33;;
25069;SDS011;13064;48.162;11.536;2022-09-02T04:08:19;4.65;;;3.40;;
25069;SDS011;13064;48.162;11.536;2022-09-02T04:10:48;6.80;;;3.78;;
25069;SDS011;13064;48.162;11.536;2022-09-02T04:13:16;6.32;;;4.05;;
25069;SDS011;13064;48.162;11.536;2022-09-02T04:15:46;6.07;;;4.03;;
25069;SDS011;13064;48.162;11.536;2022-09-02T04:18:17;4.82;;;3.42;;
25069;SDS011;13064;48.162;11.536;2022-09-02T04:20:45;8.50;;;3.90;;
25069;SDS011;13064;48.162;11.536;2022-09-02T04:23:14;5.07;;;3.92;;
25069;SDS011;13064;48.162;11.536;2022-09-02T04:25:43;5.88;;;4.10;;
25069;SDS011;13064;48.162;11.536;2022-09-02T04:28:13;4.78;;;3.47;;
25069;SDS011;13064;48.162;11.536;2022-09-02T04:30:41;7.10;;;4.28;;
25069;SDS011;13064;48.162;11.536;2022-09-02T04:33:11;6.82;;;4.10;;
25069;SDS011;13064;48.162;11.536;2022-09-02T04:35:40;4.95;;;4.05;;
25069;SDS011;13064;48.162;11.536;2022-09-02T04:38:09;6.75;;;4.05;;
25069;SDS011;13064;48.162;11.536;2022-09-02T04:40:40;6.25;;;3.65;;
25069;SDS011;13064;48.162;11.536;2022-09-02T04:43:09;5.07;;;3.80;;
25069;SDS011;13064;48.162;11.536;2022-09-02T04:45:41;9.00;;;4.00;;
25069;SDS011;13064;48.162;11.536;2022-09-02T04:48:11;5.47;;;4.20;;
25069;SDS011;13064;48.162;11.536;2022-09-02T04:50:43;4.18;;;3.80;;
25069;SDS011;13064;48.162;11.536;2022-09-02T04:53:11;4.70;;;4.00;;
25069;SDS011;13064;48.162;11.536;2022-09-02T04:55:41;5.40;;;4.28;;
25069;SDS011;13064;48.162;11.536;2022-09-02T04:58:11;6.85;;;4.55;;
25069;SDS011;13064;48.162;11.536;2022-09-02T05:00:41;5.32;;;4.45;;
25069;SDS011;13064;48.162;11.536;2022-09-02T05:03:11;6.55;;;4.15;;
25069;SDS011;13064;48.162;11.536;2022-09-02T05:05:41;5.78;;;4.40;;
25069;SDS011;13064;48.162;11.536;2022-09-02T05:08:11;4.88;;;3.80;;
25069;SDS011;13064;48.162;11.536;2022-09-02T05:10:41;4.72;;;4.15;;
25069;SDS011;13064;48.162;11.536;2022-09-02T05:13:09;7.63;;;4.10;;
25069;SDS011;13064;48.162;11.536;2022-09-02T05:15:38;9.27;;;4.90;;
25069;SDS011;13064;48.162;11.536;2022-09-02T05:18:07;6.53;;;4.90;;
25069;SDS011;13064;48.162;11.536;2022-09-02T05:20:37;5.53;;;4.68;;
25069;SDS011;13064;48.162;11.536;2022-09-02T05:23:06;6.88;;;4.88;;
25069;SDS011;13064;48.162;11.536;2022-09-02T05:25:35;7.25;;;4.35;;
25069;SDS011;13064;48.162;11.536;2022-09-02T05:28:04;6.70;;;4.28;;
25069;SDS011;13064;48.162;11.536;2022-09-02T05:30:36;5.03;;;4.53;;
25069;SDS011;13064;48.162;11.536;2022-09-02T05:33:06;6.93;;;4.30;;
25069;SDS011;13064;48.162;11.536;2022-09-02T05:35:42;5.72;;;4.63;;
25069;SDS011;13064;48.162;11.536;2022-09-02T05:38:13;8.55;;;4.82;;
25069;SDS011;13064;48.162;11.536;2022-09-02T05:40:45;9.73;;;4.93;;
25069;SDS011;13064;48.162;11.536;2022-09-02T05:43:13;8.48;;;4.63;;
25069;SDS011;13064;48.162;11.536;2022-09-02T05:45:41;6.28;;;4.40;;
25069;SDS011;13064;48.162;11.536;2022-09-02T05:48:09;7.38;;;4.47;;
25069;SDS011;13064;48.162;11.536;2022-09-02T05:50:56;8.70;;;5.10;;
25069;SDS011;13064;48.162;11.536;2022-09-02T05:53:26;9.27;;;4.63;;
25069;SDS011;13064;48.162;11.536;2022-09-02T05:55:54;7.88;;;4.45;;
25069;SDS011;13064;48.162;11.536;2022-09-02T05:58:23;6.57;;;4.10;;
25069;SDS011;13064;48.162;11.536;2022-09-02T06:00:52;6.70;;;4.60;;
25069;SDS011;13064;48.162;11.536;2022-09-02T06:03:20;7.38;;;4.40;;
25069;SDS011;13064;48.162;11.536;2022-09-02T06:05:53;8.38;;;4.40;;
25069;SDS011;13064;48.162;11.536;2022-09-02T06:08:21;7.30;;;4.32;;
25069;SDS011;13064;48.162;11.536;2022-09-02T06:10:49;7.90;;;4.18;;
25069;SDS011;13064;48.162;11.536;2022-09-02T06:13:20;7.97;;;4.30;;
25069;SDS011;13064;48.162;11.536;2022-09-02T06:15:51;8.20;;;4.30;;
25069;SDS011;13064;48.162;11.536;2022-09-02T06:18:22;8.32;;;4.30;;
25069;SDS011;13064;48.162;11.536;2022-09-02T06:20:53;6.28;;;3.80;;
25069;SDS011;13064;48.162;11.536;2022-09-02T06:23:22;7.22;;;4.20;;
25069;SDS011;13064;48.162;11.536;2022-09-02T06:25:51;6.93;;;4.03;;
25069;SDS011;13064;48.162;11.536;2022-09-02T06:28:19;6.53;;;4.43;;
25069;SDS011;13064;48.162;11.536;2022-09-02T06:30:48;5.38;;;4.07;;
25069;SDS011;13064;48.162;11.536;2022-09-02T06:33:20;7.97;;;4.03;;
25069;SDS011;13064;48.162;11.536;2022-09-02T06:35:49;7.57;;;4.18;;
25069;SDS011;13064;48.162;11.536;2022-09-02T06:38:19;10.15;;;4.38;;
25069;SDS011;13064;48.162;11.536;2022-09-02T06:40:49;8.85;;;3.92;;
25069;SDS011;13064;48.162;11.536;2022-09-02T06:43:23;5.15;;;4.03;;
25069;SDS011;13064;48.162;11.536;2022-09-02T06:46:04;8.40;;;4.05;;
25069;SDS011;13064;48.162;11.536;2022-09-02T06:48:34;5.60;;;3.40;;
25069;SDS011;13064;48.162;11.536;2022-09-02T06:51:04;6.53;;;3.97;;
25069;SDS011;13064;48.162;11.536;2022-09-02T06:53:33;6.93;;;3.60;;
25069;SDS011;13064;48.162;11.536;2022-09-02T06:56:01;7.82;;;3.97;;
25069;SDS011;13064;48.162;11.536;2022-09-02T07:01:00;6.63;;;3.40;;
25069;SDS011;13064;48.162;11.536;2022-09-02T07:03:28;5.32;;;2.90;;
25069;SDS011;13064;48.162;11.536;2022-09-02T07:06:31;6.20;;;3.47;;
25069;SDS011;13064;48.162;11.536;2022-09-02T07:09:04;6.88;;;3.60;;
25069;SDS011;13064;48.162;11.536;2022-09-02T07:11:33;4.40;;;2.92;;
25069;SDS011;13064;48.162;11.536;2022-09-02T07:14:01;4.47;;;2.75;;
25069;SDS011;13064;48.162;11.536;2022-09-02T07:16:30;4.88;;;3.10;;
25069;SDS011;13064;48.162;11.536;2022-09-02T07:18:59;9.00;;;2.55;;
25069;SDS011;13064;48.162;11.536;2022-09-02T07:21:28;4.30;;;2.70;;
25069;SDS011;13064;48.162;11.536;2022-09-02T07:23:57;5.03;;;2.90;;
25069;SDS011;13064;48.162;11.536;2022-09-02T07:26:25;3.22;;;2.75;;
25069;SDS011;13064;48.162;11.536;2022-09-02T07:28:53;4.65;;;2.67;;
25069;SDS011;13064;48.162;11.536;2022-09-02T07:31:22;5.20;;;2.60;;
25069;SDS011;13064;48.162;11.536;2022-09-02T07:33:51;4.57;;;2.55;;
25069;SDS011;13064;48.162;11.536;2022-09-02T07:36:25;4.05;;;2.55;;
25069;SDS011;13064;48.162;11.536;2022-09-02T07:38:55;6.57;;;2.80;;
25069;SDS011;13064;48.162;11.536;2022-09-02T07:41:23;3.75;;;2.63;;
25069;SDS011;13064;48.162;11.536;2022-09-02T07:43:51;3.10;;;2.60;;
25069;SDS011;13064;48.162;11.536;2022-09-02T07:46:26;3.17;;;2.30;;
25069;SDS011;13064;48.162;11.536;2022-09-02T07:49:00;6.70;;;2.65;;
25069;SDS011;13064;48.162;11.536;2022-09-02T07:51:36;6.82;;;3.08;;
25069;SDS011;13064;48.162;11.536;2022-09-02T07:54:04;9.23;;;2.50;;
25069;SDS011;13064;48.162;11.536;2022-09-02T07:56:34;3.38;;;2.17;;
25069;SDS011;13064;48.162;11.536;2022-09-02T07:59:02;8.95;;;2.40;;
25069;SDS011;13064;48.162;11.536;2022-09-02T08:01:30;3.92;;;2.05;;
25069;SDS011;13064;48.162;11.536;2022-09-02T08:03:58;4.00;;;2.00;;
25069;SDS011;13064;48.162;11.536;2022-09-02T08:06:33;3.05;;;2.30;;
25069;SDS011;13064;48.162;11.536;2022-09-02T08:09:05;4.72;;;2.00;;
25069;SDS011;13064;48.162;11.536;2022-09-02T08:11:40;4.22;;;1.98;;
25069;SDS011;13064;48.162;11.536;2022-09-02T08:14:09;5.20;;;1.88;;
25069;SDS011;13064;48.162;11.536;2022-09-02T08:16:37;2.47;;;1.70;;
25069;SDS011;13064;48.162;11.536;2022-09-02T08:19:06;4.80;;;1.77;;
25069;SDS011;13064;48.162;11.536;2022-09-02T08:21:34;1.63;;;1.40;;
25069;SDS011;13064;48.162;11.536;2022-09-02T08:24:03;3.38;;;1.75;;
25069;SDS011;13064;48.162;11.536;2022-09-02T08:26:31;2.42;;;1.40;;
25069;SDS011;13064;48.162;11.536;2022-09-02T08:29:10;4.80;;;1.80;;
25069;SDS011;13064;48.162;11.536;2022-09-02T08:31:37;1.95;;;1.60;;
25069;SDS011;13064;48.162;11.536;2022-09-02T08:34:05;4.70;;;1.88;;
25069;SDS011;13064;48.162;11.536;2022-09-02T08:36:33;3.55;;;1.50;;
25069;SDS011;13064;48.162;11.536;2022-09-02T08:39:02;5.45;;;1.42;;
25069;SDS011;13064;48.162;11.536;2022-09-02T08:41:40;5.32;;;1.33;;
25069;SDS011;13064;48.162;11.536;2022-09-02T08:44:10;3.08;;;1.30;;
25069;SDS011;13064;48.162;11.536;2022-09-02T08:46:41;3.08;;;1.50;;
25069;SDS011;13064;48.162;11.536;2022-09-02T08:49:23;1.35;;;1.10;;
25069;SDS011;13064;48.162;11.536;2022-09-02T08:51:52;2.25;;;1.33;;
25069;SDS011;13064;48.162;11.536;2022-09-02T08:54:29;4.57;;;1.58;;
25069;SDS011;13064;48.162;11.536;2022-09-02T08:56:58;4.25;;;1.33;;
25069;SDS011;13064;48.162;11.536;2022-09-02T08:59:26;5.50;;;1.30;;
25069;SDS011;13064;48.162;11.536;2022-09-02T09:20:24;4.05;;;1.55;;
25069;SDS011;13064;48.162;11.536;2022-09-02T09:22:54;4.75;;;1.25;;
25069;SDS011;13064;48.162;11.536;2022-09-02T09:25:23;2.20;;;1.10;;
25069;SDS011;13064;48.162;11.536;2022-09-02T09:27:58;1.80;;;1.23;;
25069;SDS011;13064;48.162;11.536;2022-09-02T09:30:26;2.70;;;1.10;;
25069;SDS011;13064;48.162;11.536;2022-09-02T09:32:56;2.45;;;1.20;;
25069;SDS011;13064;48.162;11.536;2022-09-02T09:35:26;2.70;;;1.20;;
25069;SDS011;13064;48.162;11.536;2022-09-02T09:37:54;4.90;;;1.50;;
25069;SDS011;13064;48.162;11.536;2022-09-02T09:40:26;2.55;;;1.33;;
25069;SDS011;13064;48.162;11.536;2022-09-02T09:45:44;3.80;;;1.75;;
25069;SDS011;13064;48.162;11.536;2022-09-02T09:50:44;3.95;;;1.75;;
25069;SDS011;13064;48.162;11.536;2022-09-02T09:53:22;2.55;;;1.30;;
25069;SDS011;13064;48.162;11.536;2022-09-02T09:55:54;2.20;;;1.17;;
25069;SDS011;13064;48.162;11.536;2022-09-02T09:58:23;2.30;;;1.30;;
25069;SDS011;13064;48.162;11.536;2022-09-02T10:00:52;2.45;;;1.35;;
25069;SDS011;13064;48.162;11.536;2022-09-02T10:03:26;2.35;;;1.10;;
25069;SDS011;13064;48.162;11.536;2022-09-02T10:06:04;3.70;;;1.50;;
25069;SDS011;13064;48.162;11.536;2022-09-02T10:08:56;4.80;;;1.20;;
25069;SDS011;13064;48.162;11.536;2022-09-02T10:11:25;1.88;;;1.00;;
25069;SDS011;13064;48.162;11.536;2022-09-02T10:13:57;1.83;;;1.15;;
25069;SDS011;13064;48.162;11.536;2022-09-02T10:24:24;1.90;;;1.00;;
25069;SDS011;13064;48.162;11.536;2022-09-02T10:26:57;1.98;;;1.23;;
25069;SDS011;13064;48.162;11.536;2022-09-02T10:32:08;5.65;;;1.20;;
25069;SDS011;13064;48.162;11.536;2022-09-02T10:40:09;1.13;;;1.00;;
25069;SDS011;13064;48.162;11.536;2022-09-02T10:42:42;1.83;;;1.20;;
25069;SDS011;13064;48.162;11.536;2022-09-02T10:45:21;1.98;;;1.02;;
25069;SDS011;13064;48.162;11.536;2022-09-02T10:47:57;2.85;;;1.10;;
25069;SDS011;13064;48.162;11.536;2022-09-02T10:53:08;3.17;;;1.10;;
25069;SDS011;13064;48.162;11.536;2022-09-02T10:55:52;1.95;;;1.00;;
25069;SDS011;13064;48.162;11.536;2022-09-02T11:01:11;1.70;;;1.10;;
25069;SDS011;13064;48.162;11.536;2022-09-02T11:03:48;1.67;;;0.95;;
25069;SDS011;13064;48.162;11.536;2022-09-02T11:06:20;4.22;;;1.02;;
25069;SDS011;13064;48.162;11.536;2022-09-02T11:09:02;2.28;;;1.08;;
25069;SDS011;13064;48.162;11.536;2022-09-02T11:11:31;1.70;;;0.80;;
25069;SDS011;13064;48.162;11.536;2022-09-02T11:14:23;1.40;;;0.90;;
25069;SDS011;13064;48.162;11.536;2022-09-02T11:16:59;3.03;;;1.10;;
25069;SDS011;13064;48.162;11.536;2022-09-02T11:19:31;3.17;;;1.20;;
25069;SDS011;13064;48.162;11.536;2022-09-02T11:24:36;1.80;;;1.00;;
25069;SDS011;13064;48.162;11.536;2022-09-02T11:32:41;2.70;;;1.00;;
25069;SDS011;13064;48.162;11.536;2022-09-02T11:35:19;2.55;;;1.00;;
25069;SDS011;13064;48.162;11.536;2022-09-02T11:37:49;3.13;;;1.13;;
25069;SDS011;13064;48.162;11.536;2022-09-02T11:51:34;3.10;;;0.93;;
25069;SDS011;13064;48.162;11.536;2022-09-02T11:54:08;1.52;;;1.10;;
25069;SDS011;13064;48.162;11.536;2022-09-02T11:56:45;2.83;;;1.13;;
25069;SDS011;13064;48.162;11.536;2022-09-02T11:59:21;4.57;;;1.23;;
25069;SDS011;13064;48.162;11.536;2022-09-02T12:01:50;1.95;;;1.08;;
25069;SDS011;13064;48.162;11.536;2022-09-02T12:04:23;1.20;;;1.02;;
25069;SDS011;13064;48.162;11.536;2022-09-02T12:09:41;1.75;;;1.00;;
25069;SDS011;13064;48.162;11.536;2022-09-02T12:13:00;0.95;;;0.82;;
25069;SDS011;13064;48.162;11.536;2022-09-02T12:17:36;5.85;;;1.00;;
25069;SDS011;13064;48.162;11.536;2022-09-02T12:20:06;2.28;;;1.00;;
25069;SDS011;13064;48.162;11.536;2022-09-02T12:22:35;2.67;;;1.30;;
25069;SDS011;13064;48.162;11.536;2022-09-02T12:25:32;1.58;;;1.20;;
25069;SDS011;13064;48.162;11.536;2022-09-02T12:33:37;2.05;;;1.00;;
25069;SDS011;13064;48.162;11.536;2022-09-02T12:36:05;4.50;;;0.80;;
25069;SDS011;13064;48.162;11.536;2022-09-02T12:38:34;3.35;;;1.00;;
25069;SDS011;13064;48.162;11.536;2022-09-02T12:43:33;2.80;;;0.80;;
25069;SDS011;13064;48.162;11.536;2022-09-02T12:46:26;3.00;;;0.98;;
25069;SDS011;13064;48.162;11.536;2022-09-02T12:49:05;1.60;;;1.00;;
25069;SDS011;13064;48.162;11.536;2022-09-02T12:51:55;4.03;;;1.13;;
25069;SDS011;13064;48.162;11.536;2022-09-02T12:54:30;2.70;;;1.13;;
25069;SDS011;13064;48.162;11.536;2022-09-02T12:56:58;4.60;;;1.30;;
25069;SDS011;13064;48.162;11.536;2022-09-02T12:59:27;2.75;;;1.00;;
25069;SDS011;13064;48.162;11.536;2022-09-02T13:04:45;6.55;;;1.17;;
25069;SDS011;13064;48.162;11.536;2022-09-02T13:26:12;1.90;;;0.88;;
25069;SDS011;13064;48.162;11.536;2022-09-02T13:29:58;2.47;;;1.10;;
25069;SDS011;13064;48.162;11.536;2022-09-02T13:34:40;3.70;;;1.00;;
25069;SDS011;13064;48.162;11.536;2022-09-02T13:39:54;4.28;;;0.90;;
25069;SDS011;13064;48.162;11.536;2022-09-02T13:42:24;4.55;;;1.08;;
25069;SDS011;13064;48.162;11.536;2022-09-02T13:45:14;1.25;;;0.95;;
25069;SDS011;13064;48.162;11.536;2022-09-02T13:47:43;6.55;;;1.20;;
25069;SDS011;13064;48.162;11.536;2022-09-02T13:50:12;3.97;;;1.02;;
25069;SDS011;13064;48.162;11.536;2022-09-02T13:52:41;2.90;;;1.00;;
25069;SDS011;13064;48.162;11.536;2022-09-02T13:55:30;6.63;;;1.10;;
25069;SDS011;13064;48.162;11.536;2022-09-02T13:58:02;3.08;;;1.08;;
25069;SDS011;13064;48.162;11.536;2022-09-02T14:00:35;2.05;;;0.98;;
25069;SDS011;13064;48.162;11.536;2022-09-02T14:03:05;3.15;;;1.00;;
25069;SDS011;13064;48.162;11.536;2022-09-02T14:05:34;3.63;;;1.17;;
25069;SDS011;13064;48.162;11.536;2022-09-02T14:08:04;1.65;;;0.90;;
25069;SDS011;13064;48.162;11.536;2022-09-02T14:10:33;3.10;;;1.02;;
25069;SDS011;13064;48.162;11.536;2022-09-02T14:13:01;1.75;;;1.10;;
25069;SDS011;13064;48.162;11.536;2022-09-02T14:20:59;2.58;;;0.90;;
25069;SDS011;13064;48.162;11.536;2022-09-02T14:23:28;3.53;;;1.00;;
25069;SDS011;13064;48.162;11.536;2022-09-02T14:25:59;2.45;;;0.90;;
25069;SDS011;13064;48.162;11.536;2022-09-02T14:28:28;4.88;;;1.02;;
25069;SDS011;13064;48.162;11.536;2022-09-02T14:31:06;3.42;;;1.10;;
25069;SDS011;13064;48.162;11.536;2022-09-02T14:38:56;5.77;;;1.20;;
25069;SDS011;13064;48.162;11.536;2022-09-02T14:41:27;4.20;;;1.10;;
25069;SDS011;13064;48.162;11.536;2022-09-02T14:43:57;3.05;;;1.02;;
25069;SDS011;13064;48.162;11.536;2022-09-02T14:46:29;2.33;;;1.02;;
25069;SDS011;13064;48.162;11.536;2022-09-02T14:49:06;3.38;;;0.75;;
25069;SDS011;13064;48.162;11.536;2022-09-02T14:52:18;1.90;;;0.93;;
25069;SDS011;13064;48.162;11.536;2022-09-02T14:54:59;4.03;;;1.13;;
25069;SDS011;13064;48.162;11.536;2022-09-02T14:59:50;2.30;;;1.10;;
25069;SDS011;13064;48.162;11.536;2022-09-02T15:04:59;1.83;;;1.05;;
25069;SDS011;13064;48.162;11.536;2022-09-02T15:07:27;3.20;;;0.98;;
25069;SDS011;13064;48.162;11.536;2022-09-02T15:09:55;1.50;;;0.80;;
25069;SDS011;13064;48.162;11.536;2022-09-02T15:12:24;2.50;;;1.10;;
25069;SDS011;13064;48.162;11.536;2022-09-02T15:14:55;3.22;;;1.27;;
25069;SDS011;13064;48.162;11.536;2022-09-02T15:17:23;2.17;;;0.90;;
25069;SDS011;13064;48.162;11.536;2022-09-02T15:19:51;5.03;;;1.00;;
25069;SDS011;13064;48.162;11.536;2022-09-02T15:22:19;5.65;;;1.30;;
25069;SDS011;13064;48.162;11.536;2022-09-02T15:24:47;3.80;;;1.13;;
25069;SDS011;13064;48.162;11.536;2022-09-02T15:27:14;1.42;;;0.90;;
25069;SDS011;13064;48.162;11.536;2022-09-02T15:29:47;1.60;;;0.98;;
25069;SDS011;13064;48.162;11.536;2022-09-02T15:32:15;2.25;;;1.20;;
25069;SDS011;13064;48.162;11.536;2022-09-02T15:34:42;2.22;;;0.95;;
25069;SDS011;13064;48.162;11.536;2022-09-02T15:37:10;2.33;;;1.10;;
25069;SDS011;13064;48.162;11.536;2022-09-02T15:39:39;2.92;;;0.80;;
25069;SDS011;13064;48.162;11.536;2022-09-02T15:42:06;1.65;;;0.98;;
25069;SDS011;13064;48.162;11.536;2022-09-02T15:44:34;1.42;;;1.00;;
25069;SDS011;13064;48.162;11.536;2022-09-02T15:47:02;1.58;;;0.88;;
25069;SDS011;13064;48.162;11.536;2022-09-02T15:49:29;4.05;;;1.17;;
25069;SDS011;13064;48.162;11.536;2022-09-02T15:51:57;4.90;;;0.90;;
25069;SDS011;13064;48.162;11.536;2022-09-02T15:54:26;1.02;;;0.90;;
25069;SDS011;13064;48.162;11.536;2022-09-02T15:56:54;3.55;;;1.10;;
25069;SDS011;13064;48.162;11.536;2022-09-02T15:59:22;2.63;;;1.40;;
25069;SDS011;13064;48.162;11.536;2022-09-02T16:01:50;1.98;;;1.20;;
25069;SDS011;13064;48.162;11.536;2022-09-02T16:04:21;3.30;;;1.40;;
25069;SDS011;13064;48.162;11.536;2022-09-02T16:06:49;2.47;;;0.95;;
25069;SDS011;13064;48.162;11.536;2022-09-02T16:09:18;2.90;;;1.20;;
25069;SDS011;13064;48.162;11.536;2022-09-02T16:11:47;3.55;;;0.93;;
25069;SDS011;13064;48.162;11.536;2022-09-02T16:14:15;3.72;;;1.20;;
25069;SDS011;13064;48.162;11.536;2022-09-02T16:16:47;2.15;;;1.05;;
25069;SDS011;13064;48.162;11.536;2022-09-02T16:19:19;1.80;;;1.05;;
25069;SDS011;13064;48.162;11.536;2022-09-02T16:21:48;1.45;;;0.93;;
25069;SDS011;13064;48.162;11.536;2022-09-02T16:24:16;3.00;;;1.00;;
25069;SDS011;13064;48.162;11.536;2022-09-02T16:26:45;1.05;;;0.95;;
25069;SDS011;13064;48.162;11.536;2022-09-02T16:29:14;4.35;;;1.35;;
25069;SDS011;13064;48.162;11.536;2022-09-02T16:31:46;3.13;;;1.13;;
25069;SDS011;13064;48.162;11.536;2022-09-02T16:34:34;1.58;;;1.10;;
25069;SDS011;13064;48.162;11.536;2022-09-02T16:37:01;2.97;;;0.80;;
25069;SDS011;13064;48.162;11.536;2022-09-02T16:39:29;2.00;;;1.00;;
25069;SDS011;13064;48.162;11.536;2022-09-02T16:41:57;2.67;;;1.10;;
25069;SDS011;13064;48.162;11.536;2022-09-02T16:44:29;1.98;;;0.90;;
25069;SDS011;13064;48.162;11.536;2022-09-02T16:46:59;2.92;;;0.80;;
25069;SDS011;13064;48.162;11.536;2022-09-02T16:49:27;3.42;;;0.98;;
25069;SDS011;13064;48.162;11.536;2022-09-02T16:51:54;1.38;;;0.85;;
25069;SDS011;13064;48.162;11.536;2022-09-02T16:54:25;1.67;;;0.93;;
25069;SDS011;13064;48.162;11.536;2022-09-02T16:56:58;2.05;;;0.90;;
25069;SDS011;13064;48.162;11.536;2022-09-02T16:59:26;1.05;;;0.90;;
25069;SDS011;13064;48.162;11.536;2022-09-02T17:01:53;4.30;;;1.00;;
25069;SDS011;13064;48.162;11.536;2022-09-02T17:04:21;1.65;;;0.98;;